sensor_id;sensor_type;location;lat;lon;timestamp;P1;durP1;ratioP1;P2;durP2;ratioP2
40871;SDS011;26591;43.264;26.940;2023-01-10T00:01:08;26.35;;;16.83;;
40871;SDS011;26591;43.264;26.940;2023-01-10T00:03:34;32.30;;;20.42;;
40871;SDS011;26591;43.264;26.940;2023-01-10T00:05:59;32.33;;;20.95;;
40871;SDS011;26591;43.264;26.940;2023-01-10T00:08:34;30.60;;;17.40;;
40871;SDS011;26591;43.264;26.940;2023-01-10T00:10:59;39.63;;;23.02;;
40871;SDS011;26591;43.264;26.940;2023-01-10T00:13:54;27.70;;;18.38;;
40871;SDS011;26591;43.264;26.940;2023-01-10T00:16:20;33.17;;;21.05;;
40871;SDS011;26591;43.264;26.940;2023-01-10T00:18:47;23.70;;;14.02;;
40871;SDS011;26591;43.264;26.940;2023-01-10T00:21:13;31.35;;;20.52;;
40871;SDS011;26591;43.264;26.940;2023-01-10T00:23:39;30.20;;;20.15;;
40871;SDS011;26591;43.264;26.940;2023-01-10T00:26:05;30.17;;;21.42;;
40871;SDS011;26591;43.264;26.940;2023-01-10T00:28:31;29.83;;;20.85;;
40871;SDS011;26591;43.264;26.940;2023-01-10T00:31:00;30.45;;;21.33;;
40871;SDS011;26591;43.264;26.940;2023-01-10T00:33:30;30.60;;;20.02;;
40871;SDS011;26591;43.264;26.940;2023-01-10T00:35:56;28.38;;;19.38;;
40871;SDS011;26591;43.264;26.940;2023-01-10T00:38:22;28.10;;;18.77;;
40871;SDS011;26591;43.264;26.940;2023-01-10T00:40:48;31.70;;;22.27;;
40871;SDS011;26591;43.264;26.940;2023-01-10T00:43:14;35.33;;;23.60;;
40871;SDS011;26591;43.264;26.940;2023-01-10T00:45:58;31.23;;;20.02;;
40871;SDS011;26591;43.264;26.940;2023-01-10T00:48:24;27.77;;;19.10;;
40871;SDS011;26591;43.264;26.940;2023-01-10T00:50:49;26.15;;;19.02;;
40871;SDS011;26591;43.264;26.940;2023-01-10T00:53:15;28.25;;;20.70;;
40871;SDS011;26591;43.264;26.940;2023-01-10T00:55:40;30.48;;;22.05;;
40871;SDS011;26591;43.264;26.940;2023-01-10T00:58:06;28.65;;;20.38;;
40871;SDS011;26591;43.264;26.940;2023-01-10T01:00:35;26.63;;;18.77;;
40871;SDS011;26591;43.264;26.940;2023-01-10T01:03:05;31.05;;;19.45;;
40871;SDS011;26591;43.264;26.940;2023-01-10T01:05:32;30.95;;;19.92;;
40871;SDS011;26591;43.264;26.940;2023-01-10T01:07:58;29.77;;;21.27;;
40871;SDS011;26591;43.264;26.940;2023-01-10T01:10:23;32.92;;;21.80;;
40871;SDS011;26591;43.264;26.940;2023-01-10T01:12:53;30.05;;;21.23;;
40871;SDS011;26591;43.264;26.940;2023-01-10T01:15:19;27.55;;;19.10;;
40871;SDS011;26591;43.264;26.940;2023-01-10T01:17:46;29.75;;;19.80;;
40871;SDS011;26591;43.264;26.940;2023-01-10T01:20:12;27.98;;;20.73;;
40871;SDS011;26591;43.264;26.940;2023-01-10T01:22:38;30.48;;;20.73;;
40871;SDS011;26591;43.264;26.940;2023-01-10T01:25:10;29.55;;;20.10;;
40871;SDS011;26591;43.264;26.940;2023-01-10T01:27:36;27.60;;;18.08;;
40871;SDS011;26591;43.264;26.940;2023-01-10T01:30:02;20.13;;;14.25;;
40871;SDS011;26591;43.264;26.940;2023-01-10T01:32:32;45.65;;;17.52;;
40871;SDS011;26591;43.264;26.940;2023-01-10T01:35:14;24.92;;;17.20;;
40871;SDS011;26591;43.264;26.940;2023-01-10T01:37:41;23.73;;;15.82;;
40871;SDS011;26591;43.264;26.940;2023-01-10T01:40:15;23.88;;;15.15;;
40871;SDS011;26591;43.264;26.940;2023-01-10T01:42:42;20.98;;;15.00;;
40871;SDS011;26591;43.264;26.940;2023-01-10T01:47:41;23.42;;;15.48;;
40871;SDS011;26591;43.264;26.940;2023-01-10T01:50:54;19.63;;;14.63;;
40871;SDS011;26591;43.264;26.940;2023-01-10T01:53:28;22.17;;;16.35;;
40871;SDS011;26591;43.264;26.940;2023-01-10T01:56:00;25.35;;;18.38;;
40871;SDS011;26591;43.264;26.940;2023-01-10T01:58:35;24.45;;;18.00;;
40871;SDS011;26591;43.264;26.940;2023-01-10T02:01:05;22.98;;;17.73;;
40871;SDS011;26591;43.264;26.940;2023-01-10T02:03:31;23.58;;;17.30;;
40871;SDS011;26591;43.264;26.940;2023-01-10T02:05:58;24.67;;;16.40;;
40871;SDS011;26591;43.264;26.940;2023-01-10T02:08:24;26.67;;;16.45;;
40871;SDS011;26591;43.264;26.940;2023-01-10T02:11:00;25.83;;;17.42;;
40871;SDS011;26591;43.264;26.940;2023-01-10T02:13:32;27.10;;;19.20;;
40871;SDS011;26591;43.264;26.940;2023-01-10T02:15:59;24.45;;;17.23;;
40871;SDS011;26591;43.264;26.940;2023-01-10T02:18:25;25.00;;;18.15;;
40871;SDS011;26591;43.264;26.940;2023-01-10T02:27:24;22.58;;;15.90;;
40871;SDS011;26591;43.264;26.940;2023-01-10T02:30:30;24.33;;;16.85;;
40871;SDS011;26591;43.264;26.940;2023-01-10T02:32:55;25.02;;;17.90;;
40871;SDS011;26591;43.264;26.940;2023-01-10T02:37:59;24.70;;;15.73;;
40871;SDS011;26591;43.264;26.940;2023-01-10T02:43:13;24.90;;;16.88;;
40871;SDS011;26591;43.264;26.940;2023-01-10T02:48:40;24.05;;;17.88;;
40871;SDS011;26591;43.264;26.940;2023-01-10T02:54:08;29.70;;;19.20;;
40871;SDS011;26591;43.264;26.940;2023-01-10T03:10:55;33.42;;;23.05;;
40871;SDS011;26591;43.264;26.940;2023-01-10T03:13:38;34.28;;;25.60;;
40871;SDS011;26591;43.264;26.940;2023-01-10T03:16:18;30.55;;;21.63;;
40871;SDS011;26591;43.264;26.940;2023-01-10T03:18:50;36.83;;;23.15;;
40871;SDS011;26591;43.264;26.940;2023-01-10T03:21:26;34.72;;;23.38;;
40871;SDS011;26591;43.264;26.940;2023-01-10T03:23:55;31.17;;;22.63;;
40871;SDS011;26591;43.264;26.940;2023-01-10T03:29:27;38.50;;;25.27;;
40871;SDS011;26591;43.264;26.940;2023-01-10T03:31:59;41.47;;;27.95;;
40871;SDS011;26591;43.264;26.940;2023-01-10T03:36:58;35.78;;;24.13;;
40871;SDS011;26591;43.264;26.940;2023-01-10T03:39:36;35.85;;;23.35;;
40871;SDS011;26591;43.264;26.940;2023-01-10T03:42:18;35.38;;;23.52;;
40871;SDS011;26591;43.264;26.940;2023-01-10T03:47:18;36.80;;;26.50;;
40871;SDS011;26591;43.264;26.940;2023-01-10T03:49:47;42.25;;;26.67;;
40871;SDS011;26591;43.264;26.940;2023-01-10T03:52:17;39.92;;;27.98;;
40871;SDS011;26591;43.264;26.940;2023-01-10T03:54:44;43.00;;;28.88;;
40871;SDS011;26591;43.264;26.940;2023-01-10T03:57:15;39.65;;;26.73;;
40871;SDS011;26591;43.264;26.940;2023-01-10T03:59:47;40.53;;;28.17;;
40871;SDS011;26591;43.264;26.940;2023-01-10T04:02:19;43.42;;;29.15;;
40871;SDS011;26591;43.264;26.940;2023-01-10T04:04:44;44.72;;;30.33;;
40871;SDS011;26591;43.264;26.940;2023-01-10T04:07:10;49.72;;;30.92;;
40871;SDS011;26591;43.264;26.940;2023-01-10T04:09:36;42.67;;;29.67;;
40871;SDS011;26591;43.264;26.940;2023-01-10T04:12:01;48.25;;;31.73;;
40871;SDS011;26591;43.264;26.940;2023-01-10T04:14:27;48.03;;;32.65;;
40871;SDS011;26591;43.264;26.940;2023-01-10T04:16:58;50.88;;;34.90;;
40871;SDS011;26591;43.264;26.940;2023-01-10T04:19:24;48.35;;;33.55;;
40871;SDS011;26591;43.264;26.940;2023-01-10T04:21:50;46.72;;;32.85;;
40871;SDS011;26591;43.264;26.940;2023-01-10T04:24:15;48.95;;;33.47;;
40871;SDS011;26591;43.264;26.940;2023-01-10T04:26:41;54.15;;;34.88;;
40871;SDS011;26591;43.264;26.940;2023-01-10T04:29:06;55.05;;;38.13;;
40871;SDS011;26591;43.264;26.940;2023-01-10T04:31:32;59.85;;;37.28;;
40871;SDS011;26591;43.264;26.940;2023-01-10T04:33:58;72.07;;;39.00;;
40871;SDS011;26591;43.264;26.940;2023-01-10T04:36:24;66.05;;;41.30;;
40871;SDS011;26591;43.264;26.940;2023-01-10T04:38:49;63.53;;;40.60;;
40871;SDS011;26591;43.264;26.940;2023-01-10T04:41:15;62.05;;;41.47;;
40871;SDS011;26591;43.264;26.940;2023-01-10T04:43:41;63.67;;;38.60;;
40871;SDS011;26591;43.264;26.940;2023-01-10T04:46:18;61.58;;;38.20;;
40871;SDS011;26591;43.264;26.940;2023-01-10T04:48:44;64.75;;;41.63;;
40871;SDS011;26591;43.264;26.940;2023-01-10T04:51:09;62.35;;;40.67;;
40871;SDS011;26591;43.264;26.940;2023-01-10T04:53:35;63.05;;;38.92;;
40871;SDS011;26591;43.264;26.940;2023-01-10T04:56:06;71.18;;;42.58;;
40871;SDS011;26591;43.264;26.940;2023-01-10T04:58:34;68.28;;;42.25;;
40871;SDS011;26591;43.264;26.940;2023-01-10T05:01:08;60.35;;;40.53;;
40871;SDS011;26591;43.264;26.940;2023-01-10T05:03:40;60.95;;;38.38;;
40871;SDS011;26591;43.264;26.940;2023-01-10T05:06:06;58.80;;;37.83;;
40871;SDS011;26591;43.264;26.940;2023-01-10T05:08:32;54.08;;;35.30;;
40871;SDS011;26591;43.264;26.940;2023-01-10T05:10:57;65.82;;;39.70;;
40871;SDS011;26591;43.264;26.940;2023-01-10T05:13:23;57.47;;;36.95;;
40871;SDS011;26591;43.264;26.940;2023-01-10T05:15:53;58.13;;;38.35;;
40871;SDS011;26591;43.264;26.940;2023-01-10T05:18:20;63.70;;;39.13;;
40871;SDS011;26591;43.264;26.940;2023-01-10T05:20:46;60.72;;;36.30;;
40871;SDS011;26591;43.264;26.940;2023-01-10T05:23:12;54.90;;;35.85;;
40871;SDS011;26591;43.264;26.940;2023-01-10T05:25:37;58.55;;;37.50;;
40871;SDS011;26591;43.264;26.940;2023-01-10T05:28:03;57.83;;;37.58;;
40871;SDS011;26591;43.264;26.940;2023-01-10T05:30:28;52.67;;;36.03;;
40871;SDS011;26591;43.264;26.940;2023-01-10T05:32:54;52.08;;;33.25;;
40871;SDS011;26591;43.264;26.940;2023-01-10T05:35:21;55.88;;;35.53;;
40871;SDS011;26591;43.264;26.940;2023-01-10T05:37:47;59.55;;;35.63;;
40871;SDS011;26591;43.264;26.940;2023-01-10T05:40:12;59.70;;;38.92;;
40871;SDS011;26591;43.264;26.940;2023-01-10T05:42:38;59.42;;;35.38;;
40871;SDS011;26591;43.264;26.940;2023-01-10T05:45:04;56.60;;;34.58;;
40871;SDS011;26591;43.264;26.940;2023-01-10T05:47:32;49.85;;;32.78;;
40871;SDS011;26591;43.264;26.940;2023-01-10T05:49:57;53.22;;;32.00;;
40871;SDS011;26591;43.264;26.940;2023-01-10T05:52:25;52.58;;;32.45;;
40871;SDS011;26591;43.264;26.940;2023-01-10T05:54:50;46.38;;;31.88;;
40871;SDS011;26591;43.264;26.940;2023-01-10T05:57:16;46.05;;;28.55;;
40871;SDS011;26591;43.264;26.940;2023-01-10T05:59:43;37.55;;;25.90;;
40871;SDS011;26591;43.264;26.940;2023-01-10T06:02:09;38.92;;;26.20;;
40871;SDS011;26591;43.264;26.940;2023-01-10T06:04:34;48.22;;;31.60;;
40871;SDS011;26591;43.264;26.940;2023-01-10T06:07:00;43.17;;;27.40;;
40871;SDS011;26591;43.264;26.940;2023-01-10T06:09:25;51.63;;;31.42;;
40871;SDS011;26591;43.264;26.940;2023-01-10T06:11:54;40.40;;;28.20;;
40871;SDS011;26591;43.264;26.940;2023-01-10T06:14:25;48.15;;;29.10;;
40871;SDS011;26591;43.264;26.940;2023-01-10T06:16:51;43.13;;;28.05;;
40871;SDS011;26591;43.264;26.940;2023-01-10T06:19:16;40.22;;;25.40;;
40871;SDS011;26591;43.264;26.940;2023-01-10T06:21:42;42.60;;;29.52;;
40871;SDS011;26591;43.264;26.940;2023-01-10T06:24:08;39.17;;;22.42;;
40871;SDS011;26591;43.264;26.940;2023-01-10T06:26:33;38.33;;;26.33;;
40871;SDS011;26591;43.264;26.940;2023-01-10T06:28:59;46.33;;;30.08;;
40871;SDS011;26591;43.264;26.940;2023-01-10T06:31:25;36.80;;;25.45;;
40871;SDS011;26591;43.264;26.940;2023-01-10T06:33:51;37.72;;;24.27;;
40871;SDS011;26591;43.264;26.940;2023-01-10T06:36:16;32.75;;;21.70;;
40871;SDS011;26591;43.264;26.940;2023-01-10T06:38:42;31.70;;;19.85;;
40871;SDS011;26591;43.264;26.940;2023-01-10T06:41:07;37.53;;;22.60;;
40871;SDS011;26591;43.264;26.940;2023-01-10T06:43:39;39.55;;;26.15;;
40871;SDS011;26591;43.264;26.940;2023-01-10T06:46:12;41.65;;;24.60;;
40871;SDS011;26591;43.264;26.940;2023-01-10T06:48:40;45.97;;;29.23;;
40871;SDS011;26591;43.264;26.940;2023-01-10T06:51:10;35.07;;;24.23;;
40871;SDS011;26591;43.264;26.940;2023-01-10T06:53:37;36.15;;;23.00;;
40871;SDS011;26591;43.264;26.940;2023-01-10T06:56:03;50.60;;;27.35;;
40871;SDS011;26591;43.264;26.940;2023-01-10T06:58:30;33.85;;;21.75;;
40871;SDS011;26591;43.264;26.940;2023-01-10T07:00:56;30.05;;;19.00;;
40871;SDS011;26591;43.264;26.940;2023-01-10T07:03:21;36.58;;;20.65;;
40871;SDS011;26591;43.264;26.940;2023-01-10T07:05:47;26.65;;;16.63;;
40871;SDS011;26591;43.264;26.940;2023-01-10T07:08:12;32.60;;;20.95;;
40871;SDS011;26591;43.264;26.940;2023-01-10T07:10:42;32.45;;;19.77;;
40871;SDS011;26591;43.264;26.940;2023-01-10T07:13:08;30.77;;;20.87;;
40871;SDS011;26591;43.264;26.940;2023-01-10T07:15:35;31.48;;;20.10;;
40871;SDS011;26591;43.264;26.940;2023-01-10T07:18:01;29.13;;;18.85;;
40871;SDS011;26591;43.264;26.940;2023-01-10T07:20:26;36.35;;;21.13;;
40871;SDS011;26591;43.264;26.940;2023-01-10T07:22:54;32.08;;;18.40;;
40871;SDS011;26591;43.264;26.940;2023-01-10T07:25:20;29.17;;;19.95;;
40871;SDS011;26591;43.264;26.940;2023-01-10T07:27:47;32.78;;;18.75;;
40871;SDS011;26591;43.264;26.940;2023-01-10T07:30:12;28.23;;;19.60;;
40871;SDS011;26591;43.264;26.940;2023-01-10T07:32:38;29.75;;;19.90;;
40871;SDS011;26591;43.264;26.940;2023-01-10T07:35:03;32.33;;;21.42;;
40871;SDS011;26591;43.264;26.940;2023-01-10T07:37:29;25.15;;;16.08;;
40871;SDS011;26591;43.264;26.940;2023-01-10T07:39:55;37.90;;;23.42;;
40871;SDS011;26591;43.264;26.940;2023-01-10T07:42:20;30.90;;;21.40;;
40871;SDS011;26591;43.264;26.940;2023-01-10T07:44:46;20.77;;;14.68;;
40871;SDS011;26591;43.264;26.940;2023-01-10T07:47:11;26.85;;;17.70;;
40871;SDS011;26591;43.264;26.940;2023-01-10T07:49:37;27.30;;;18.17;;
40871;SDS011;26591;43.264;26.940;2023-01-10T07:52:02;22.23;;;15.43;;
40871;SDS011;26591;43.264;26.940;2023-01-10T07:54:29;25.60;;;15.32;;
40871;SDS011;26591;43.264;26.940;2023-01-10T07:56:54;30.17;;;15.57;;
40871;SDS011;26591;43.264;26.940;2023-01-10T07:59:20;23.58;;;15.07;;
40871;SDS011;26591;43.264;26.940;2023-01-10T08:01:45;23.25;;;13.55;;
40871;SDS011;26591;43.264;26.940;2023-01-10T08:04:12;21.05;;;13.95;;
40871;SDS011;26591;43.264;26.940;2023-01-10T08:06:38;22.55;;;16.15;;
40871;SDS011;26591;43.264;26.940;2023-01-10T08:09:03;24.85;;;14.93;;
40871;SDS011;26591;43.264;26.940;2023-01-10T08:11:30;26.30;;;14.82;;
40871;SDS011;26591;43.264;26.940;2023-01-10T08:13:55;22.70;;;14.38;;
40871;SDS011;26591;43.264;26.940;2023-01-10T08:16:21;20.95;;;13.63;;
40871;SDS011;26591;43.264;26.940;2023-01-10T08:18:46;21.08;;;11.77;;
40871;SDS011;26591;43.264;26.940;2023-01-10T08:21:12;20.60;;;12.55;;
40871;SDS011;26591;43.264;26.940;2023-01-10T08:23:38;21.15;;;14.95;;
40871;SDS011;26591;43.264;26.940;2023-01-10T08:26:03;19.58;;;12.98;;
40871;SDS011;26591;43.264;26.940;2023-01-10T08:28:29;20.42;;;13.65;;
40871;SDS011;26591;43.264;26.940;2023-01-10T08:30:55;22.98;;;13.65;;
40871;SDS011;26591;43.264;26.940;2023-01-10T08:33:22;21.58;;;12.95;;
40871;SDS011;26591;43.264;26.940;2023-01-10T08:35:48;20.67;;;12.65;;
40871;SDS011;26591;43.264;26.940;2023-01-10T08:38:14;18.10;;;12.02;;
40871;SDS011;26591;43.264;26.940;2023-01-10T08:40:40;26.20;;;16.25;;
40871;SDS011;26591;43.264;26.940;2023-01-10T08:43:07;20.40;;;13.23;;
40871;SDS011;26591;43.264;26.940;2023-01-10T08:45:35;18.73;;;12.80;;
40871;SDS011;26591;43.264;26.940;2023-01-10T08:48:02;20.50;;;12.93;;
40871;SDS011;26591;43.264;26.940;2023-01-10T08:50:28;17.92;;;12.68;;
40871;SDS011;26591;43.264;26.940;2023-01-10T08:52:58;18.40;;;13.52;;
40871;SDS011;26591;43.264;26.940;2023-01-10T08:55:26;16.85;;;11.45;;
40871;SDS011;26591;43.264;26.940;2023-01-10T08:57:52;19.27;;;12.85;;
40871;SDS011;26591;43.264;26.940;2023-01-10T09:00:18;16.90;;;11.45;;
40871;SDS011;26591;43.264;26.940;2023-01-10T09:02:44;21.40;;;12.32;;
40871;SDS011;26591;43.264;26.940;2023-01-10T09:05:10;17.77;;;13.00;;
40871;SDS011;26591;43.264;26.940;2023-01-10T09:07:36;21.58;;;15.05;;
40871;SDS011;26591;43.264;26.940;2023-01-10T09:10:02;21.52;;;15.82;;
40871;SDS011;26591;43.264;26.940;2023-01-10T09:12:28;21.85;;;13.25;;
40871;SDS011;26591;43.264;26.940;2023-01-10T09:15:13;16.83;;;12.32;;
40871;SDS011;26591;43.264;26.940;2023-01-10T09:17:38;19.77;;;13.00;;
40871;SDS011;26591;43.264;26.940;2023-01-10T09:20:04;17.45;;;11.95;;
40871;SDS011;26591;43.264;26.940;2023-01-10T09:22:34;19.20;;;13.37;;
40871;SDS011;26591;43.264;26.940;2023-01-10T09:25:03;18.98;;;12.82;;
40871;SDS011;26591;43.264;26.940;2023-01-10T09:27:30;21.15;;;12.70;;
40871;SDS011;26591;43.264;26.940;2023-01-10T09:29:56;19.45;;;12.50;;
40871;SDS011;26591;43.264;26.940;2023-01-10T09:32:21;25.63;;;12.93;;
40871;SDS011;26591;43.264;26.940;2023-01-10T09:34:47;19.15;;;12.60;;
40871;SDS011;26591;43.264;26.940;2023-01-10T09:37:12;18.13;;;12.30;;
40871;SDS011;26591;43.264;26.940;2023-01-10T09:39:38;22.10;;;12.45;;
40871;SDS011;26591;43.264;26.940;2023-01-10T09:53:33;22.48;;;13.32;;
40871;SDS011;26591;43.264;26.940;2023-01-10T09:56:04;19.15;;;12.85;;
40871;SDS011;26591;43.264;26.940;2023-01-10T09:58:31;19.17;;;13.02;;
40871;SDS011;26591;43.264;26.940;2023-01-10T10:01:11;26.45;;;12.90;;
40871;SDS011;26591;43.264;26.940;2023-01-10T10:06:43;23.05;;;15.77;;
40871;SDS011;26591;43.264;26.940;2023-01-10T10:09:11;22.88;;;14.40;;
40871;SDS011;26591;43.264;26.940;2023-01-10T10:17:18;29.40;;;20.08;;
40871;SDS011;26591;43.264;26.940;2023-01-10T10:22:41;24.63;;;15.10;;
40871;SDS011;26591;43.264;26.940;2023-01-10T10:27:43;27.98;;;15.60;;
40871;SDS011;26591;43.264;26.940;2023-01-10T10:36:20;22.15;;;16.05;;
40871;SDS011;26591;43.264;26.940;2023-01-10T10:38:48;28.15;;;15.88;;
40871;SDS011;26591;43.264;26.940;2023-01-10T10:41:37;27.98;;;15.52;;
40871;SDS011;26591;43.264;26.940;2023-01-10T10:46:47;30.90;;;18.60;;
40871;SDS011;26591;43.264;26.940;2023-01-10T10:52:13;23.17;;;16.27;;
40871;SDS011;26591;43.264;26.940;2023-01-10T10:54:46;24.17;;;15.10;;
40871;SDS011;26591;43.264;26.940;2023-01-10T10:57:12;41.80;;;20.88;;
40871;SDS011;26591;43.264;26.940;2023-01-10T10:59:37;30.88;;;16.48;;
40871;SDS011;26591;43.264;26.940;2023-01-10T11:02:10;27.25;;;14.93;;
40871;SDS011;26591;43.264;26.940;2023-01-10T11:04:48;27.27;;;16.65;;
40871;SDS011;26591;43.264;26.940;2023-01-10T11:07:16;27.75;;;15.57;;
40871;SDS011;26591;43.264;26.940;2023-01-10T11:09:43;26.58;;;15.07;;
40871;SDS011;26591;43.264;26.940;2023-01-10T11:12:30;23.40;;;14.07;;
40871;SDS011;26591;43.264;26.940;2023-01-10T11:14:57;23.08;;;13.18;;
40871;SDS011;26591;43.264;26.940;2023-01-10T11:17:28;24.00;;;14.05;;
40871;SDS011;26591;43.264;26.940;2023-01-10T11:19:59;21.13;;;12.32;;
40871;SDS011;26591;43.264;26.940;2023-01-10T11:22:27;19.85;;;12.57;;
40871;SDS011;26591;43.264;26.940;2023-01-10T11:24:57;24.70;;;13.38;;
40871;SDS011;26591;43.264;26.940;2023-01-10T11:27:26;20.95;;;14.00;;
40871;SDS011;26591;43.264;26.940;2023-01-10T11:30:08;24.70;;;13.20;;
40871;SDS011;26591;43.264;26.940;2023-01-10T11:32:48;31.42;;;15.18;;
40871;SDS011;26591;43.264;26.940;2023-01-10T11:35:38;25.50;;;13.85;;
40871;SDS011;26591;43.264;26.940;2023-01-10T11:38:08;34.63;;;15.55;;
40871;SDS011;26591;43.264;26.940;2023-01-10T11:40:55;22.88;;;13.38;;
40871;SDS011;26591;43.264;26.940;2023-01-10T11:43:34;23.02;;;14.40;;
40871;SDS011;26591;43.264;26.940;2023-01-10T11:48:38;25.70;;;16.23;;
40871;SDS011;26591;43.264;26.940;2023-01-10T11:51:12;25.77;;;13.15;;
40871;SDS011;26591;43.264;26.940;2023-01-10T11:53:43;21.10;;;14.30;;
40871;SDS011;26591;43.264;26.940;2023-01-10T11:56:10;33.55;;;18.08;;
40871;SDS011;26591;43.264;26.940;2023-01-10T11:58:38;24.52;;;12.38;;
40871;SDS011;26591;43.264;26.940;2023-01-10T12:01:05;22.52;;;12.20;;
40871;SDS011;26591;43.264;26.940;2023-01-10T12:03:48;25.50;;;11.18;;
40871;SDS011;26591;43.264;26.940;2023-01-10T12:06:14;18.73;;;12.02;;
40871;SDS011;26591;43.264;26.940;2023-01-10T12:08:42;26.52;;;14.70;;
40871;SDS011;26591;43.264;26.940;2023-01-10T12:16:21;21.25;;;10.32;;
40871;SDS011;26591;43.264;26.940;2023-01-10T12:18:52;21.15;;;10.43;;
40871;SDS011;26591;43.264;26.940;2023-01-10T12:24:16;24.80;;;13.13;;
40871;SDS011;26591;43.264;26.940;2023-01-10T12:26:46;25.38;;;13.55;;
40871;SDS011;26591;43.264;26.940;2023-01-10T12:29:15;20.95;;;11.38;;
40871;SDS011;26591;43.264;26.940;2023-01-10T12:31:44;28.45;;;13.40;;
40871;SDS011;26591;43.264;26.940;2023-01-10T12:34:18;37.15;;;16.65;;
40871;SDS011;26591;43.264;26.940;2023-01-10T12:39:30;28.60;;;16.90;;
40871;SDS011;26591;43.264;26.940;2023-01-10T12:50:46;28.85;;;17.55;;
40871;SDS011;26591;43.264;26.940;2023-01-10T12:56:05;38.25;;;17.40;;
40871;SDS011;26591;43.264;26.940;2023-01-10T12:58:39;24.20;;;15.80;;
40871;SDS011;26591;43.264;26.940;2023-01-10T13:01:16;22.95;;;15.02;;
40871;SDS011;26591;43.264;26.940;2023-01-10T13:03:48;30.35;;;18.48;;
40871;SDS011;26591;43.264;26.940;2023-01-10T13:06:23;20.35;;;14.88;;
40871;SDS011;26591;43.264;26.940;2023-01-10T13:08:53;30.48;;;16.48;;
40871;SDS011;26591;43.264;26.940;2023-01-10T13:11:21;30.00;;;16.48;;
40871;SDS011;26591;43.264;26.940;2023-01-10T13:13:55;18.25;;;12.25;;
40871;SDS011;26591;43.264;26.940;2023-01-10T13:16:31;25.52;;;13.93;;
40871;SDS011;26591;43.264;26.940;2023-01-10T13:24:59;26.13;;;15.82;;
40871;SDS011;26591;43.264;26.940;2023-01-10T13:27:29;27.67;;;15.43;;
40871;SDS011;26591;43.264;26.940;2023-01-10T13:29:57;29.05;;;17.13;;
40871;SDS011;26591;43.264;26.940;2023-01-10T13:34:51;30.58;;;18.40;;
40871;SDS011;26591;43.264;26.940;2023-01-10T13:39:52;30.63;;;20.10;;
40871;SDS011;26591;43.264;26.940;2023-01-10T13:52:50;34.88;;;21.83;;
40871;SDS011;26591;43.264;26.940;2023-01-10T13:55:24;42.92;;;21.08;;
40871;SDS011;26591;43.264;26.940;2023-01-10T13:57:51;35.10;;;22.30;;
40871;SDS011;26591;43.264;26.940;2023-01-10T14:00:24;36.10;;;20.83;;
40871;SDS011;26591;43.264;26.940;2023-01-10T14:04:09;41.38;;;21.50;;
40871;SDS011;26591;43.264;26.940;2023-01-10T14:14:17;27.25;;;18.17;;
40871;SDS011;26591;43.264;26.940;2023-01-10T14:16:47;24.45;;;16.10;;
40871;SDS011;26591;43.264;26.940;2023-01-10T14:19:22;34.63;;;18.98;;
40871;SDS011;26591;43.264;26.940;2023-01-10T14:21:50;32.55;;;19.60;;
40871;SDS011;26591;43.264;26.940;2023-01-10T14:24:23;38.25;;;22.00;;
40871;SDS011;26591;43.264;26.940;2023-01-10T14:27:03;40.20;;;23.52;;
40871;SDS011;26591;43.264;26.940;2023-01-10T14:29:30;35.65;;;22.77;;
40871;SDS011;26591;43.264;26.940;2023-01-10T14:31:57;58.72;;;29.38;;
40871;SDS011;26591;43.264;26.940;2023-01-10T14:34:26;36.20;;;23.10;;
40871;SDS011;26591;43.264;26.940;2023-01-10T14:36:57;37.47;;;21.48;;
40871;SDS011;26591;43.264;26.940;2023-01-10T14:39:25;29.00;;;18.60;;
40871;SDS011;26591;43.264;26.940;2023-01-10T14:42:00;32.95;;;19.90;;
40871;SDS011;26591;43.264;26.940;2023-01-10T14:44:43;37.05;;;25.23;;
40871;SDS011;26591;43.264;26.940;2023-01-10T14:47:31;49.65;;;20.33;;
40871;SDS011;26591;43.264;26.940;2023-01-10T14:49:58;49.08;;;22.70;;
40871;SDS011;26591;43.264;26.940;2023-01-10T14:52:30;60.60;;;35.03;;
40871;SDS011;26591;43.264;26.940;2023-01-10T14:55:04;39.42;;;26.38;;
40871;SDS011;26591;43.264;26.940;2023-01-10T14:57:35;35.60;;;20.00;;
40871;SDS011;26591;43.264;26.940;2023-01-10T15:02:37;33.00;;;20.42;;
40871;SDS011;26591;43.264;26.940;2023-01-10T15:05:16;31.10;;;19.58;;
40871;SDS011;26591;43.264;26.940;2023-01-10T15:07:45;27.60;;;15.10;;
40871;SDS011;26591;43.264;26.940;2023-01-10T15:10:24;34.78;;;22.90;;
40871;SDS011;26591;43.264;26.940;2023-01-10T15:12:52;23.33;;;16.63;;
40871;SDS011;26591;43.264;26.940;2023-01-10T15:15:21;23.88;;;15.27;;
40871;SDS011;26591;43.264;26.940;2023-01-10T15:17:52;31.85;;;19.13;;
40871;SDS011;26591;43.264;26.940;2023-01-10T15:20:18;31.92;;;20.15;;
40871;SDS011;26591;43.264;26.940;2023-01-10T15:22:46;41.40;;;22.00;;
40871;SDS011;26591;43.264;26.940;2023-01-10T15:27:43;25.15;;;15.20;;
40871;SDS011;26591;43.264;26.940;2023-01-10T15:30:14;29.15;;;17.27;;
40871;SDS011;26591;43.264;26.940;2023-01-10T15:32:44;27.20;;;16.70;;
40871;SDS011;26591;43.264;26.940;2023-01-10T15:35:14;22.75;;;13.90;;
40871;SDS011;26591;43.264;26.940;2023-01-10T15:37:40;33.35;;;20.42;;
40871;SDS011;26591;43.264;26.940;2023-01-10T15:40:20;27.88;;;18.92;;
40871;SDS011;26591;43.264;26.940;2023-01-10T15:42:48;19.85;;;14.60;;
40871;SDS011;26591;43.264;26.940;2023-01-10T15:45:27;22.45;;;14.95;;
40871;SDS011;26591;43.264;26.940;2023-01-10T15:48:01;30.08;;;17.80;;
40871;SDS011;26591;43.264;26.940;2023-01-10T15:50:32;28.60;;;17.02;;
40871;SDS011;26591;43.264;26.940;2023-01-10T15:53:07;33.72;;;19.17;;
40871;SDS011;26591;43.264;26.940;2023-01-10T16:00:41;22.05;;;16.13;;
40871;SDS011;26591;43.264;26.940;2023-01-10T16:06:03;36.10;;;19.02;;
40871;SDS011;26591;43.264;26.940;2023-01-10T16:11:04;29.30;;;16.50;;
40871;SDS011;26591;43.264;26.940;2023-01-10T16:13:32;18.25;;;12.60;;
40871;SDS011;26591;43.264;26.940;2023-01-10T16:16:00;40.30;;;20.05;;
40871;SDS011;26591;43.264;26.940;2023-01-10T16:18:29;52.90;;;28.15;;
40871;SDS011;26591;43.264;26.940;2023-01-10T16:20:58;26.88;;;16.23;;
40871;SDS011;26591;43.264;26.940;2023-01-10T16:23:29;30.88;;;18.98;;
40871;SDS011;26591;43.264;26.940;2023-01-10T16:25:59;26.42;;;16.77;;
40871;SDS011;26591;43.264;26.940;2023-01-10T16:28:27;26.23;;;16.25;;
40871;SDS011;26591;43.264;26.940;2023-01-10T16:30:57;31.52;;;20.10;;
40871;SDS011;26591;43.264;26.940;2023-01-10T16:33:23;31.70;;;18.85;;
40871;SDS011;26591;43.264;26.940;2023-01-10T16:35:52;58.72;;;34.67;;
40871;SDS011;26591;43.264;26.940;2023-01-10T16:38:19;34.53;;;21.67;;
40871;SDS011;26591;43.264;26.940;2023-01-10T16:40:47;36.50;;;22.23;;
40871;SDS011;26591;43.264;26.940;2023-01-10T16:43:15;36.25;;;20.75;;
40871;SDS011;26591;43.264;26.940;2023-01-10T16:45:52;39.15;;;22.25;;
40871;SDS011;26591;43.264;26.940;2023-01-10T16:48:26;34.53;;;19.03;;
40871;SDS011;26591;43.264;26.940;2023-01-10T16:50:54;33.63;;;20.42;;